Time;durP1;ratioP1;P1;durP2;ratioP2;P2;SDS_P1;SDS_P2;PMS_P1;PMS_P2;Temp;Humidity;BMP_temperature;BMP_pressure;BME280_temperature;BME280_humidity;BME280_pressure;Samples;Min_cycle;Max_cycle;Signal;HPM_P1;HPM_P2
2022/08/16 00:00:51;;;;;;;5.72;3.30;;;;;;;;;;5221514;28;1029716;-72
2022/08/16 00:03:22;;;;;;;8.67;4.40;;;;;;;;;;5262386;28;20103;-71
2022/08/16 00:05:53;;;;;;;3.97;3.60;;;;;;;;;;5262569;28;20063;-71
2022/08/16 00:08:25;;;;;;;6.07;2.80;;;;;;;;;;5262188;28;20461;-71
2022/08/16 00:10:56;;;;;;;3.67;3.38;;;;;;;;;;5262999;28;20460;-71
2022/08/16 00:13:28;;;;;;;6.68;4.05;;;;;;;;;;5262459;28;20025;-70
2022/08/16 00:15:59;;;;;;;6.50;4.43;;;;;;;;;;5262676;28;20013;-71
2022/08/16 00:18:30;;;;;;;5.87;4.10;;;;;;;;;;5263530;28;20492;-71
2022/08/16 00:21:02;;;;;;;4.80;4.27;;;;;;;;;;5264054;28;20322;-69
2022/08/16 00:23:33;;;;;;;5.70;4.30;;;;;;;;;;5262548;28;20258;-69
2022/08/16 00:26:04;;;;;;;8.30;3.95;;;;;;;;;;5263788;28;20072;-70
2022/08/16 00:28:35;;;;;;;5.53;4.37;;;;;;;;;;5263467;28;20017;-69
2022/08/16 00:31:06;;;;;;;7.43;4.05;;;;;;;;;;5263117;28;20318;-69
2022/08/16 00:33:38;;;;;;;6.95;4.88;;;;;;;;;;5263139;28;20021;-69
2022/08/16 00:36:09;;;;;;;9.43;4.60;;;;;;;;;;5262975;28;20017;-70
2022/08/16 00:38:40;;;;;;;7.78;4.80;;;;;;;;;;5262826;28;20286;-70
2022/08/16 00:41:12;;;;;;;8.40;4.60;;;;;;;;;;5263749;28;20035;-70
2022/08/16 00:43:43;;;;;;;6.47;4.28;;;;;;;;;;5262233;28;20052;-70
2022/08/16 00:46:17;;;;;;;7.00;4.63;;;;;;;;;;5263732;28;20024;-69
2022/08/16 00:48:49;;;;;;;7.00;4.57;;;;;;;;;;5262706;28;20063;-69
2022/08/16 00:51:21;;;;;;;6.82;4.68;;;;;;;;;;5262877;28;20017;-70
2022/08/16 00:53:53;;;;;;;6.60;4.05;;;;;;;;;;5262815;28;20020;-70
2022/08/16 00:56:29;;;;;;;8.55;4.68;;;;;;;;;;5263152;28;20021;-69
2022/08/16 00:59:01;;;;;;;11.57;6.07;;;;;;;;;;5262175;28;20021;-70
2022/08/16 01:01:32;;;;;;;6.60;5.30;;;;;;;;;;5262814;28;20081;-70
2022/08/16 01:04:05;;;;;;;6.50;5.03;;;;;;;;;;5263014;28;20024;-69
2022/08/16 01:06:36;;;;;;;8.35;5.28;;;;;;;;;;5261772;28;20028;-69
2022/08/16 01:09:07;;;;;;;9.30;5.63;;;;;;;;;;5263083;28;20583;-70
2022/08/16 01:11:39;;;;;;;8.57;5.40;;;;;;;;;;5262071;28;20025;-70
2022/08/16 01:14:30;;;;;;;7.82;6.28;;;;;;;;;;5262852;28;20368;-69
2022/08/16 01:17:02;;;;;;;9.93;6.13;;;;;;;;;;5262283;28;20041;-68
2022/08/16 01:19:35;;;;;;;8.68;7.75;;;;;;;;;;5261113;28;20029;-69
2022/08/16 01:22:18;;;;;;;9.25;6.95;;;;;;;;;;5262819;28;20472;-69
2022/08/16 01:24:50;;;;;;;7.20;6.50;;;;;;;;;;5262406;28;20021;-69
2022/08/16 01:27:23;;;;;;;7.95;6.53;;;;;;;;;;5262049;28;20096;-69
2022/08/16 01:29:57;;;;;;;9.98;7.13;;;;;;;;;;5262291;28;20107;-69
2022/08/16 01:32:30;;;;;;;12.15;7.63;;;;;;;;;;5261116;28;20021;-69
2022/08/16 01:35:04;;;;;;;12.93;7.15;;;;;;;;;;5262535;28;20111;-69
2022/08/16 01:37:37;;;;;;;9.90;7.70;;;;;;;;;;5261786;28;20024;-70
2022/08/16 01:40:10;;;;;;;13.60;8.23;;;;;;;;;;5261812;28;20025;-70
2022/08/16 01:42:42;;;;;;;12.77;6.93;;;;;;;;;;5261722;28;20028;-69
2022/08/16 01:45:14;;;;;;;9.13;7.25;;;;;;;;;;5262325;28;20025;-69
2022/08/16 01:47:46;;;;;;;15.82;7.70;;;;;;;;;;5261129;28;20024;-69
2022/08/16 01:50:19;;;;;;;11.10;7.70;;;;;;;;;;5262417;28;20376;-69
2022/08/16 01:52:50;;;;;;;13.10;8.70;;;;;;;;;;5261664;28;20040;-70
2022/08/16 01:55:21;;;;;;;9.27;7.67;;;;;;;;;;5261358;28;20025;-70
2022/08/16 01:57:53;;;;;;;10.88;7.63;;;;;;;;;;5261779;28;20350;-70
2022/08/16 02:00:24;;;;;;;12.10;7.47;;;;;;;;;;5261050;28;20075;-70
2022/08/16 02:02:55;;;;;;;8.85;7.32;;;;;;;;;;5261691;28;20263;-69
2022/08/16 02:05:27;;;;;;;11.00;8.10;;;;;;;;;;5261478;28;20075;-70
2022/08/16 02:07:58;;;;;;;12.00;7.00;;;;;;;;;;5261138;28;20270;-70
2022/08/16 02:10:30;;;;;;;8.35;7.53;;;;;;;;;;5261460;28;20627;-70
2022/08/16 02:13:02;;;;;;;9.10;8.20;;;;;;;;;;5262011;28;20100;-69
2022/08/16 02:15:35;;;;;;;9.80;8.80;;;;;;;;;;5260526;28;20356;-70
2022/08/16 02:18:06;;;;;;;11.10;9.18;;;;;;;;;;5261778;28;20460;-69
2022/08/16 02:20:38;;;;;;;10.23;9.25;;;;;;;;;;5260833;28;20036;-70
2022/08/16 02:23:10;;;;;;;11.88;9.63;;;;;;;;;;5260948;28;20025;-70
2022/08/16 02:25:41;;;;;;;11.80;9.77;;;;;;;;;;5260717;28;20095;-70
2022/08/16 02:28:13;;;;;;;11.50;9.52;;;;;;;;;;5261754;28;20017;-69
2022/08/16 02:30:44;;;;;;;11.05;9.48;;;;;;;;;;5260063;28;20087;-69
2022/08/16 02:33:15;;;;;;;12.05;10.20;;;;;;;;;;5261360;28;20060;-70
2022/08/16 02:35:46;;;;;;;11.07;9.98;;;;;;;;;;5260193;28;20020;-69
2022/08/16 02:38:18;;;;;;;10.40;9.02;;;;;;;;;;5261528;28;20044;-69
2022/08/16 02:40:49;;;;;;;10.55;9.48;;;;;;;;;;5260678;28;20287;-69
2022/08/16 02:43:21;;;;;;;11.88;9.70;;;;;;;;;;5260252;28;20350;-69
2022/08/16 02:45:52;;;;;;;10.30;9.30;;;;;;;;;;5260877;28;20107;-69
2022/08/16 02:48:23;;;;;;;11.02;9.77;;;;;;;;;;5261002;28;20100;-70
2022/08/16 02:50:56;;;;;;;12.23;10.65;;;;;;;;;;5260086;28;20285;-69
2022/08/16 02:53:28;;;;;;;12.13;10.95;;;;;;;;;;5260514;28;20036;-70
2022/08/16 02:55:59;;;;;;;11.43;10.40;;;;;;;;;;5260963;28;20518;-69
2022/08/16 02:58:32;;;;;;;13.77;10.33;;;;;;;;;;5259810;28;20074;-69
2022/08/16 03:01:03;;;;;;;12.07;10.85;;;;;;;;;;5260757;28;20299;-69
2022/08/16 03:03:36;;;;;;;11.70;10.43;;;;;;;;;;5260389;28;20482;-69
2022/08/16 03:06:07;;;;;;;12.07;10.88;;;;;;;;;;5260170;28;20013;-69
2022/08/16 03:08:38;;;;;;;13.18;11.98;;;;;;;;;;5260209;28;20025;-69
2022/08/16 03:11:10;;;;;;;11.77;10.68;;;;;;;;;;5259967;28;20066;-69
2022/08/16 03:13:41;;;;;;;11.57;10.57;;;;;;;;;;5260318;28;20538;-69
2022/08/16 03:16:13;;;;;;;12.70;10.10;;;;;;;;;;5261119;28;20025;-69
2022/08/16 03:18:44;;;;;;;12.48;11.10;;;;;;;;;;5259336;28;20290;-69
2022/08/16 03:21:15;;;;;;;12.10;10.90;;;;;;;;;;5260667;28;20029;-69
2022/08/16 03:23:47;;;;;;;12.43;11.18;;;;;;;;;;5260256;28;20488;-70
2022/08/16 03:26:18;;;;;;;12.93;10.60;;;;;;;;;;5259846;28;20017;-70
2022/08/16 03:28:49;;;;;;;11.50;10.45;;;;;;;;;;5260038;28;20495;-69
2022/08/16 03:31:20;;;;;;;15.77;11.02;;;;;;;;;;5260636;28;20086;-71
2022/08/16 03:33:51;;;;;;;12.18;10.85;;;;;;;;;;5259464;28;20090;-71
2022/08/16 03:36:23;;;;;;;11.20;10.20;;;;;;;;;;5260729;28;20287;-69
2022/08/16 03:38:54;;;;;;;12.80;11.68;;;;;;;;;;5263092;28;20100;-71
2022/08/16 03:41:26;;;;;;;12.13;10.90;;;;;;;;;;5264228;28;20429;-71
2022/08/16 03:43:57;;;;;;;13.18;11.63;;;;;;;;;;5264758;28;20396;-69
2022/08/16 03:46:28;;;;;;;12.48;11.25;;;;;;;;;;5263470;28;20021;-71
2022/08/16 03:48:59;;;;;;;12.27;10.80;;;;;;;;;;5264953;28;20100;-69
2022/08/16 03:51:30;;;;;;;12.80;11.60;;;;;;;;;;5264182;28;20272;-69
2022/08/16 03:54:02;;;;;;;11.20;10.10;;;;;;;;;;5263828;28;20025;-71
2022/08/16 03:56:33;;;;;;;12.77;11.55;;;;;;;;;;5264083;28;20366;-71
2022/08/16 03:59:04;;;;;;;13.48;12.07;;;;;;;;;;5264453;28;20120;-70
2022/08/16 04:01:36;;;;;;;12.57;10.95;;;;;;;;;;5263265;28;20074;-71
2022/08/16 04:04:07;;;;;;;14.48;13.10;;;;;;;;;;5264559;28;20017;-68
2022/08/16 04:06:38;;;;;;;13.35;12.05;;;;;;;;;;5263881;28;20048;-71
2022/08/16 04:09:11;;;;;;;14.07;12.77;;;;;;;;;;5263865;28;20477;-71
2022/08/16 04:11:42;;;;;;;15.20;13.70;;;;;;;;;;5263717;28;20311;-71
2022/08/16 04:14:13;;;;;;;15.33;13.57;;;;;;;;;;5263539;28;20021;-71
2022/08/16 04:16:44;;;;;;;15.40;13.40;;;;;;;;;;5263634;28;20271;-71
2022/08/16 04:19:16;;;;;;;15.13;13.60;;;;;;;;;;5263917;28;20533;-71
2022/08/16 04:21:47;;;;;;;16.08;14.55;;;;;;;;;;5262854;28;20017;-71
2022/08/16 04:24:18;;;;;;;15.95;14.38;;;;;;;;;;5263855;28;20063;-69
2022/08/16 04:26:49;;;;;;;15.65;13.95;;;;;;;;;;5263382;28;20368;-71
2022/08/16 04:29:20;;;;;;;16.20;14.50;;;;;;;;;;5263080;28;20036;-69
2022/08/16 04:31:52;;;;;;;17.52;14.90;;;;;;;;;;5263255;28;20407;-69
2022/08/16 04:34:28;;;;;;;15.13;13.63;;;;;;;;;;5263570;28;20036;-70
2022/08/16 04:36:59;;;;;;;16.73;14.32;;;;;;;;;;5262918;28;20013;-70
2022/08/16 04:39:31;;;;;;;16.23;13.55;;;;;;;;;;5262843;28;20040;-70
2022/08/16 04:42:04;;;;;;;16.98;15.18;;;;;;;;;;5263543;28;20384;-69
2022/08/16 04:44:36;;;;;;;17.98;15.70;;;;;;;;;;5262276;28;20075;-69
2022/08/16 04:47:07;;;;;;;17.08;15.27;;;;;;;;;;5263645;28;20017;-69
2022/08/16 04:49:38;;;;;;;17.37;14.93;;;;;;;;;;5261583;28;20044;-69
2022/08/16 04:52:09;;;;;;;17.17;15.45;;;;;;;;;;5263444;28;20576;-69
2022/08/16 04:54:40;;;;;;;17.92;15.25;;;;;;;;;;5262742;28;20017;-70
2022/08/16 04:57:12;;;;;;;19.73;15.65;;;;;;;;;;5262833;28;20064;-69
2022/08/16 04:59:43;;;;;;;15.37;13.93;;;;;;;;;;5262490;28;20307;-69
2022/08/16 05:02:14;;;;;;;17.15;15.45;;;;;;;;;;5263304;28;20267;-69
2022/08/16 05:04:45;;;;;;;16.50;14.90;;;;;;;;;;5261810;28;20703;-69
2022/08/16 05:07:16;;;;;;;16.48;14.70;;;;;;;;;;5263191;28;20053;-69
2022/08/16 05:09:47;;;;;;;15.63;14.20;;;;;;;;;;5262634;28;20081;-69
2022/08/16 05:12:19;;;;;;;17.03;15.27;;;;;;;;;;5262323;28;20259;-69
2022/08/16 05:14:50;;;;;;;16.00;14.15;;;;;;;;;;5262367;28;20302;-69
2022/08/16 05:17:21;;;;;;;14.35;13.05;;;;;;;;;;5262154;28;20095;-69
2022/08/16 05:19:53;;;;;;;17.85;15.05;;;;;;;;;;5262140;28;20025;-69
2022/08/16 05:22:24;;;;;;;17.05;15.27;;;;;;;;;;5262648;28;20017;-70
2022/08/16 05:24:55;;;;;;;16.50;14.88;;;;;;;;;;5261748;28;20075;-70
2022/08/16 05:27:26;;;;;;;17.27;15.40;;;;;;;;;;5262212;28;20024;-70
2022/08/16 05:29:57;;;;;;;16.73;14.95;;;;;;;;;;5262552;28;20055;-70
2022/08/16 05:32:28;;;;;;;17.77;14.83;;;;;;;;;;5261212;28;20067;-70
2022/08/16 05:35:00;;;;;;;16.60;14.93;;;;;;;;;;5262574;28;20283;-69
2022/08/16 05:37:31;;;;;;;16.67;14.98;;;;;;;;;;5261759;28;20272;-70
2022/08/16 05:40:03;;;;;;;16.90;15.00;;;;;;;;;;5261570;28;20273;-69
2022/08/16 05:42:35;;;;;;;16.65;15.05;;;;;;;;;;5261597;28;20302;-70
2022/08/16 05:45:06;;;;;;;17.38;15.57;;;;;;;;;;5262388;28;20044;-70
2022/08/16 05:47:37;;;;;;;16.60;14.95;;;;;;;;;;5260982;28;20021;-70
2022/08/16 05:50:09;;;;;;;16.67;15.02;;;;;;;;;;5262184;28;20419;-70
2022/08/16 05:52:40;;;;;;;16.77;14.82;;;;;;;;;;5260775;28;20600;-70
2022/08/16 05:55:11;;;;;;;17.33;14.20;;;;;;;;;;5262064;28;20383;-70
2022/08/16 05:57:43;;;;;;;15.80;14.30;;;;;;;;;;5261712;28;20020;-70
2022/08/16 06:00:14;;;;;;;15.95;13.32;;;;;;;;;;5260239;28;20063;-70
2022/08/16 06:02:46;;;;;;;16.60;14.93;;;;;;;;;;5261538;28;20017;-70
2022/08/16 06:05:17;;;;;;;14.93;13.15;;;;;;;;;;5261937;28;20029;-70
2022/08/16 06:07:48;;;;;;;16.77;15.07;;;;;;;;;;5260687;28;20255;-70
2022/08/16 06:10:20;;;;;;;14.80;13.43;;;;;;;;;;5261845;28;20050;-70
2022/08/16 06:12:51;;;;;;;14.70;13.40;;;;;;;;;;5261461;28;20506;-69
2022/08/16 06:15:22;;;;;;;15.43;13.07;;;;;;;;;;5260847;28;20268;-69
2022/08/16 06:17:53;;;;;;;15.40;13.77;;;;;;;;;;5261217;28;20017;-69
2022/08/16 06:20:26;;;;;;;14.07;11.65;;;;;;;;;;5261496;28;20335;-70
2022/08/16 06:22:57;;;;;;;15.02;12.82;;;;;;;;;;5260789;28;20013;-70
2022/08/16 06:25:29;;;;;;;14.68;13.20;;;;;;;;;;5261036;28;20409;-70
2022/08/16 06:28:01;;;;;;;14.13;12.63;;;;;;;;;;5260617;28;20025;-70
2022/08/16 06:30:32;;;;;;;14.97;13.37;;;;;;;;;;5260722;28;20460;-70
2022/08/16 06:33:03;;;;;;;15.67;12.80;;;;;;;;;;5261572;28;20259;-69
2022/08/16 06:35:35;;;;;;;13.60;12.30;;;;;;;;;;5259849;28;20268;-69
2022/08/16 06:38:06;;;;;;;14.73;13.23;;;;;;;;;;5261407;28;20263;-69
2022/08/16 06:40:37;;;;;;;13.65;12.20;;;;;;;;;;5260609;28;20047;-69
2022/08/16 06:43:09;;;;;;;13.23;11.90;;;;;;;;;;5260283;28;20078;-69
2022/08/16 06:45:41;;;;;;;14.57;12.13;;;;;;;;;;5260511;28;20486;-69
2022/08/16 06:48:13;;;;;;;15.52;12.55;;;;;;;;;;5261212;28;20016;-69
2022/08/16 06:50:46;;;;;;;13.20;11.80;;;;;;;;;;5259642;28;20522;-69
2022/08/16 06:53:18;;;;;;;14.02;12.25;;;;;;;;;;5260978;28;20013;-70
2022/08/16 06:55:50;;;;;;;14.00;12.60;;;;;;;;;;5259697;28;20025;-70
2022/08/16 06:58:21;;;;;;;13.80;12.50;;;;;;;;;;5260911;28;20031;-70
2022/08/16 07:00:52;;;;;;;13.80;12.50;;;;;;;;;;5260134;28;20392;-69
2022/08/16 07:03:23;;;;;;;13.52;12.23;;;;;;;;;;5259703;28;20267;-70
2022/08/16 07:05:55;;;;;;;13.73;12.32;;;;;;;;;;5260560;28;20463;-69
2022/08/16 07:08:26;;;;;;;14.65;12.18;;;;;;;;;;5260056;28;20092;-69
2022/08/16 07:10:58;;;;;;;17.15;12.57;;;;;;;;;;5259951;28;20452;-70
2022/08/16 07:13:29;;;;;;;13.82;11.98;;;;;;;;;;5259984;28;20025;-69
2022/08/16 07:16:02;;;;;;;12.95;11.85;;;;;;;;;;5260531;28;20021;-70
2022/08/16 07:18:33;;;;;;;15.38;11.95;;;;;;;;;;5259208;28;20025;-70
2022/08/16 07:21:05;;;;;;;15.10;12.25;;;;;;;;;;5260554;28;20103;-69
2022/08/16 07:23:36;;;;;;;15.13;11.50;;;;;;;;;;5259884;28;20021;-69
2022/08/16 07:26:10;;;;;;;14.88;11.75;;;;;;;;;;5259924;28;20025;-70
2022/08/16 07:28:41;;;;;;;14.52;12.68;;;;;;;;;;5259673;28;20024;-70
2022/08/16 07:31:12;;;;;;;12.40;11.20;;;;;;;;;;5259701;28;20087;-69
2022/08/16 07:33:44;;;;;;;14.05;11.57;;;;;;;;;;5260077;28;20746;-71
2022/08/16 07:36:15;;;;;;;12.77;11.57;;;;;;;;;;5260239;28;20017;-69
2022/08/16 07:38:46;;;;;;;12.02;10.88;;;;;;;;;;5259161;28;20047;-72
2022/08/16 07:41:18;;;;;;;13.43;10.50;;;;;;;;;;5260343;28;20112;-69
2022/08/16 07:43:49;;;;;;;12.83;10.93;;;;;;;;;;5260090;28;20017;-70
2022/08/16 07:46:20;;;;;;;14.63;11.10;;;;;;;;;;5259702;28;20362;-69
2022/08/16 07:48:51;;;;;;;13.02;10.52;;;;;;;;;;5259960;28;20013;-67
2022/08/16 07:51:22;;;;;;;14.20;10.50;;;;;;;;;;5260268;28;20028;-70
2022/08/16 07:53:53;;;;;;;14.87;11.67;;;;;;;;;;5258908;28;20033;-70
2022/08/16 07:56:25;;;;;;;12.47;11.23;;;;;;;;;;5260237;28;20271;-68
2022/08/16 07:58:56;;;;;;;17.30;11.63;;;;;;;;;;5260062;28;20478;-69
2022/08/16 08:01:28;;;;;;;11.40;10.30;;;;;;;;;;5258885;28;20029;-69
2022/08/16 08:04:01;;;;;;;10.50;9.38;;;;;;;;;;5260100;28;20024;-69
2022/08/16 08:06:32;;;;;;;11.90;9.80;;;;;;;;;;5257854;28;20028;-69
2022/08/16 08:09:04;;;;;;;12.67;9.20;;;;;;;;;;5260328;28;20021;-69
2022/08/16 08:11:35;;;;;;;12.63;9.27;;;;;;;;;;5259505;28;20268;-69
2022/08/16 08:14:06;;;;;;;11.40;8.32;;;;;;;;;;5258749;28;20063;-69
2022/08/16 08:16:37;;;;;;;12.80;8.80;;;;;;;;;;5257747;28;20025;-70
2022/08/16 08:19:11;;;;;;;10.43;8.90;;;;;;;;;;5260135;28;20491;-70
2022/08/16 08:21:42;;;;;;;12.20;7.28;;;;;;;;;;5258145;28;20279;-69
2022/08/16 08:24:14;;;;;;;7.80;6.70;;;;;;;;;;5262111;28;20464;-69
2022/08/16 08:26:45;;;;;;;12.98;8.10;;;;;;;;;;5262922;28;20319;-69
2022/08/16 08:29:17;;;;;;;9.43;7.20;;;;;;;;;;5262773;28;20025;-69
2022/08/16 08:31:48;;;;;;;9.38;6.50;;;;;;;;;;5263153;28;20287;-70
2022/08/16 08:34:20;;;;;;;8.52;6.50;;;;;;;;;;5263003;28;20044;-70
2022/08/16 08:36:52;;;;;;;8.27;6.57;;;;;;;;;;5263178;28;20028;-69
2022/08/16 08:39:23;;;;;;;12.95;6.95;;;;;;;;;;5263423;28;20115;-69
2022/08/16 08:41:54;;;;;;;12.67;7.63;;;;;;;;;;5262329;28;20021;-69
2022/08/16 08:44:25;;;;;;;9.57;6.65;;;;;;;;;;5263108;28;20162;-70
2022/08/16 08:46:57;;;;;;;11.30;6.20;;;;;;;;;;5263586;28;20021;-70
2022/08/16 08:49:29;;;;;;;10.82;5.90;;;;;;;;;;5261925;28;20260;-71
2022/08/16 08:52:01;;;;;;;8.90;5.38;;;;;;;;;;5263298;28;20404;-71
2022/08/16 08:54:32;;;;;;;10.30;6.10;;;;;;;;;;5262863;28;20009;-70
2022/08/16 08:57:04;;;;;;;11.48;5.50;;;;;;;;;;5262689;28;20082;-70
2022/08/16 08:59:35;;;;;;;8.05;5.13;;;;;;;;;;5262429;28;20444;-70
2022/08/16 09:02:07;;;;;;;7.27;4.37;;;;;;;;;;5263268;28;20104;-70
2022/08/16 09:04:39;;;;;;;10.32;4.25;;;;;;;;;;5261823;28;20021;-71
2022/08/16 09:07:10;;;;;;;6.55;5.50;;;;;;;;;;5263251;28;20071;-70
2022/08/16 09:09:42;;;;;;;8.48;4.38;;;;;;;;;;5261858;28;20028;-70
2022/08/16 09:12:13;;;;;;;8.33;4.80;;;;;;;;;;5262841;28;20067;-70
2022/08/16 09:14:44;;;;;;;9.95;5.07;;;;;;;;;;5262462;28;20295;-70
2022/08/16 09:17:15;;;;;;;6.97;4.53;;;;;;;;;;5262151;28;20079;-69
2022/08/16 09:19:47;;;;;;;6.37;3.43;;;;;;;;;;5262318;28;20279;-70
2022/08/16 09:22:19;;;;;;;6.00;3.78;;;;;;;;;;5262787;28;20331;-70
2022/08/16 09:24:51;;;;;;;7.82;3.13;;;;;;;;;;5261358;28;20093;-70
2022/08/16 09:27:23;;;;;;;3.83;3.15;;;;;;;;;;5262539;28;20100;-71
2022/08/16 09:29:55;;;;;;;5.72;2.72;;;;;;;;;;5262615;28;20533;-71
2022/08/16 09:32:27;;;;;;;5.05;2.70;;;;;;;;;;5261136;28;20024;-71
2022/08/16 09:35:00;;;;;;;5.88;3.30;;;;;;;;;;5261545;28;20440;-70
2022/08/16 09:37:31;;;;;;;4.28;2.58;;;;;;;;;;5261869;28;20100;-71
2022/08/16 09:40:04;;;;;;;8.93;2.53;;;;;;;;;;5261688;28;20543;-71
2022/08/16 09:42:36;;;;;;;6.28;2.42;;;;;;;;;;5262014;28;20379;-71
2022/08/16 09:45:07;;;;;;;6.10;1.73;;;;;;;;;;5261796;28;20079;-70
2022/08/16 09:47:39;;;;;;;5.70;1.60;;;;;;;;;;5261824;28;20017;-72
2022/08/16 09:50:11;;;;;;;2.15;1.42;;;;;;;;;;5262158;28;20051;-71
2022/08/16 09:52:43;;;;;;;10.73;1.77;;;;;;;;;;5260664;28;20052;-71
2022/08/16 09:55:14;;;;;;;6.45;1.52;;;;;;;;;;5262197;28;20032;-71
2022/08/16 09:57:45;;;;;;;7.33;1.60;;;;;;;;;;5261688;28;20432;-71
2022/08/16 10:00:16;;;;;;;4.83;1.17;;;;;;;;;;5260913;28;20049;-71
2022/08/16 10:02:47;;;;;;;4.72;1.27;;;;;;;;;;5261289;28;20048;-71
2022/08/16 10:05:20;;;;;;;3.38;1.45;;;;;;;;;;5262168;28;20021;-71
2022/08/16 10:07:51;;;;;;;3.67;0.90;;;;;;;;;;5260439;28;20074;-71
2022/08/16 10:10:22;;;;;;;3.95;0.98;;;;;;;;;;5261871;28;20464;-71
2022/08/16 10:13:12;;;;;;;4.07;1.20;;;;;;;;;;5260424;28;20025;-70
2022/08/16 10:15:44;;;;;;;4.38;1.08;;;;;;;;;;5261132;28;20539;-71
2022/08/16 10:18:15;;;;;;;5.40;0.90;;;;;;;;;;5261641;28;20091;-68
2022/08/16 10:20:48;;;;;;;6.43;0.90;;;;;;;;;;5260274;28;20033;-69
2022/08/16 10:23:20;;;;;;;7.70;0.95;;;;;;;;;;5261428;28;20465;-69
2022/08/16 10:25:51;;;;;;;4.18;1.10;;;;;;;;;;5260987;28;20017;-69
2022/08/16 10:28:23;;;;;;;1.97;0.90;;;;;;;;;;5260579;28;20013;-69
2022/08/16 10:30:55;;;;;;;4.50;1.10;;;;;;;;;;5261092;28;20047;-68
2022/08/16 10:33:27;;;;;;;3.25;1.23;;;;;;;;;;5260786;28;20456;-69
2022/08/16 10:35:59;;;;;;;3.35;1.15;;;;;;;;;;5260552;28;20017;-68
2022/08/16 10:38:36;;;;;;;3.42;1.38;;;;;;;;;;5260538;28;20025;-71
2022/08/16 10:41:08;;;;;;;2.47;1.08;;;;;;;;;;5260515;28;20379;-68
2022/08/16 10:43:40;;;;;;;6.72;0.95;;;;;;;;;;5260376;28;20021;-69
2022/08/16 10:46:12;;;;;;;4.00;1.30;;;;;;;;;;5260779;28;20074;-71
2022/08/16 10:48:44;;;;;;;2.17;1.10;;;;;;;;;;5259485;28;20025;-68
2022/08/16 10:51:15;;;;;;;9.75;1.80;;;;;;;;;;5260842;28;20349;-71
2022/08/16 10:53:47;;;;;;;7.90;1.55;;;;;;;;;;5260502;28;20580;-69
2022/08/16 10:56:18;;;;;;;6.73;1.20;;;;;;;;;;5260298;28;20045;-69
2022/08/16 10:58:49;;;;;;;4.63;0.90;;;;;;;;;;5260197;28;20036;-67
2022/08/16 11:01:20;;;;;;;4.23;0.93;;;;;;;;;;5260672;28;20056;-68
2022/08/16 11:03:52;;;;;;;3.63;0.93;;;;;;;;;;5259381;28;20434;-69
2022/08/16 11:06:24;;;;;;;2.83;1.20;;;;;;;;;;5260557;28;20036;-72
2022/08/16 11:08:56;;;;;;;3.15;1.20;;;;;;;;;;5260463;28;20021;-68
2022/08/16 11:11:28;;;;;;;6.07;1.35;;;;;;;;;;5259182;28;20092;-69
2022/08/16 11:13:59;;;;;;;2.97;1.10;;;;;;;;;;5260556;28;20511;-69
2022/08/16 11:16:30;;;;;;;3.35;0.90;;;;;;;;;;5259384;28;20363;-69
2022/08/16 11:19:03;;;;;;;6.72;0.88;;;;;;;;;;5260883;28;20075;-69
2022/08/16 11:21:35;;;;;;;2.58;0.88;;;;;;;;;;5259920;28;20098;-69
2022/08/16 11:24:07;;;;;;;3.50;0.90;;;;;;;;;;5259839;28;20018;-69
2022/08/16 11:26:38;;;;;;;3.90;1.00;;;;;;;;;;5259977;28;20075;-69
2022/08/16 11:29:10;;;;;;;6.25;1.70;;;;;;;;;;5260750;28;20313;-68
2022/08/16 11:31:41;;;;;;;5.00;1.10;;;;;;;;;;5259194;28;20025;-69
2022/08/16 11:34:13;;;;;;;4.55;0.90;;;;;;;;;;5260704;28;20021;-69
2022/08/16 11:36:44;;;;;;;3.85;0.90;;;;;;;;;;5259951;28;20029;-69
2022/08/16 11:39:15;;;;;;;3.92;1.00;;;;;;;;;;5259856;28;20017;-70
2022/08/16 11:41:47;;;;;;;5.35;0.90;;;;;;;;;;5259848;28;20025;-70
2022/08/16 11:44:18;;;;;;;4.23;0.97;;;;;;;;;;5259555;28;20063;-72
2022/08/16 11:46:49;;;;;;;3.42;0.82;;;;;;;;;;5259428;28;20028;-74
2022/08/16 11:49:20;;;;;;;2.40;0.90;;;;;;;;;;5260418;28;20013;-69
2022/08/16 11:51:51;;;;;;;5.63;0.80;;;;;;;;;;5259377;28;20337;-74
2022/08/16 11:54:23;;;;;;;5.65;1.17;;;;;;;;;;5260542;28;20104;-74
2022/08/16 11:56:54;;;;;;;6.03;0.93;;;;;;;;;;5259989;28;20051;-72
2022/08/16 11:59:27;;;;;;;2.33;0.80;;;;;;;;;;5261532;28;20093;-72
2022/08/16 12:01:59;;;;;;;5.35;0.70;;;;;;;;;;5264367;28;20284;-71
2022/08/16 12:04:31;;;;;;;4.87;0.70;;;;;;;;;;5263706;28;20071;-68
2022/08/16 12:07:03;;;;;;;4.47;0.90;;;;;;;;;;5263570;28;20321;-68
2022/08/16 12:09:34;;;;;;;3.63;0.88;;;;;;;;;;5263173;28;20037;-67
2022/08/16 12:12:06;;;;;;;6.95;0.90;;;;;;;;;;5263947;28;20368;-68
2022/08/16 12:14:37;;;;;;;2.22;0.80;;;;;;;;;;5262770;28;20365;-71
2022/08/16 12:17:08;;;;;;;4.50;0.70;;;;;;;;;;5274942;28;20020;-71
2022/08/16 12:19:40;;;;;;;5.68;1.00;;;;;;;;;;5273402;28;20027;-70
2022/08/16 12:22:11;;;;;;;2.40;0.90;;;;;;;;;;5273239;28;20031;-72
2022/08/16 12:24:42;;;;;;;3.90;1.00;;;;;;;;;;5272704;28;20100;-72
2022/08/16 12:27:13;;;;;;;5.03;0.83;;;;;;;;;;5275423;28;20361;-71
2022/08/16 12:29:44;;;;;;;4.47;0.80;;;;;;;;;;5284193;28;20368;-71
2022/08/16 12:32:16;;;;;;;5.03;0.70;;;;;;;;;;5284659;28;20016;-71
2022/08/16 12:34:48;;;;;;;1.60;0.63;;;;;;;;;;5283295;28;20467;-71
2022/08/16 12:37:19;;;;;;;3.10;0.80;;;;;;;;;;5284382;28;20028;-71
2022/08/16 12:39:54;;;;;;;4.55;0.88;;;;;;;;;;5283867;28;20028;-73
2022/08/16 12:42:26;;;;;;;5.43;0.90;;;;;;;;;;5283084;28;20036;-74
2022/08/16 12:44:58;;;;;;;3.20;0.70;;;;;;;;;;5284433;28;20372;-74
2022/08/16 12:50:18;;;;;;;3.85;0.70;;;;;;;;;;5284524;28;20027;-73
2022/08/16 12:52:51;;;;;;;2.30;0.80;;;;;;;;;;5283789;28;20020;-73
2022/08/16 12:55:22;;;;;;;2.92;0.80;;;;;;;;;;5283620;28;20017;-70
2022/08/16 12:57:54;;;;;;;7.35;0.98;;;;;;;;;;5283442;28;20032;-69
2022/08/16 13:00:28;;;;;;;1.53;0.83;;;;;;;;;;5283537;28;20395;-69
2022/08/16 13:03:00;;;;;;;6.15;0.70;;;;;;;;;;5283562;28;20082;-70
2022/08/16 13:05:35;;;;;;;1.42;0.52;;;;;;;;;;5283419;28;20017;-70
2022/08/16 13:08:07;;;;;;;3.33;0.88;;;;;;;;;;5283722;28;20028;-69
2022/08/16 13:10:39;;;;;;;6.35;0.80;;;;;;;;;;5282119;28;20094;-70
2022/08/16 13:13:11;;;;;;;3.97;0.70;;;;;;;;;;5284021;28;20448;-69
2022/08/16 13:15:42;;;;;;;1.95;0.70;;;;;;;;;;5282635;28;20123;-70
2022/08/16 13:18:13;;;;;;;2.63;1.35;;;;;;;;;;5283844;28;20032;-70
2022/08/16 13:20:44;;;;;;;6.82;0.80;;;;;;;;;;5282896;28;20033;-75
2022/08/16 13:23:16;;;;;;;2.50;0.63;;;;;;;;;;5283029;28;20009;-72
2022/08/16 13:25:48;;;;;;;3.83;1.10;;;;;;;;;;5283025;28;20021;-72
2022/08/16 13:28:20;;;;;;;4.40;1.00;;;;;;;;;;5283631;28;20097;-72
2022/08/16 13:30:52;;;;;;;6.70;0.93;;;;;;;;;;5282335;28;20103;-73
2022/08/16 13:33:25;;;;;;;6.50;1.00;;;;;;;;;;5282599;28;20020;-78
2022/08/16 13:35:58;;;;;;;4.30;1.00;;;;;;;;;;5283713;28;20031;-70
2022/08/16 13:38:29;;;;;;;5.40;0.90;;;;;;;;;;5282024;28;20118;-69
2022/08/16 13:41:01;;;;;;;5.33;0.90;;;;;;;;;;5282626;28;20052;-71
2022/08/16 13:43:32;;;;;;;4.45;0.82;;;;;;;;;;5273786;28;20264;-72
2022/08/16 13:46:04;;;;;;;4.70;0.83;;;;;;;;;;5267398;28;20017;-71
2022/08/16 13:48:36;;;;;;;4.60;0.90;;;;;;;;;;5272420;28;20358;-72
2022/08/16 13:51:07;;;;;;;5.10;0.80;;;;;;;;;;5282044;28;20103;-68
2022/08/16 13:53:38;;;;;;;2.22;0.70;;;;;;;;;;5282136;28;20029;-68
2022/08/16 13:56:09;;;;;;;4.65;0.70;;;;;;;;;;5282814;28;20023;-69
2022/08/16 13:58:40;;;;;;;3.40;0.80;;;;;;;;;;5281086;28;20019;-68
2022/08/16 14:01:11;;;;;;;4.43;0.90;;;;;;;;;;5282208;28;20307;-68
2022/08/16 14:03:43;;;;;;;1.73;0.70;;;;;;;;;;5281749;28;20016;-68
2022/08/16 14:06:14;;;;;;;7.13;0.93;;;;;;;;;;5280334;28;20017;-68
2022/08/16 14:08:45;;;;;;;4.57;0.68;;;;;;;;;;5271059;28;20434;-68
2022/08/16 14:11:16;;;;;;;3.67;0.70;;;;;;;;;;5279700;28;20115;-68
2022/08/16 14:13:48;;;;;;;3.40;0.80;;;;;;;;;;5281171;28;20087;-68
2022/08/16 14:16:19;;;;;;;4.90;0.83;;;;;;;;;;5282028;28;20063;-68
2022/08/16 14:18:51;;;;;;;3.97;0.90;;;;;;;;;;5281588;28;20365;-67
2022/08/16 14:21:22;;;;;;;4.70;0.70;;;;;;;;;;5280265;28;20054;-67
2022/08/16 14:23:53;;;;;;;4.18;0.73;;;;;;;;;;5281455;28;20378;-67
2022/08/16 14:26:25;;;;;;;2.83;0.93;;;;;;;;;;5280659;28;20482;-67
2022/08/16 14:28:56;;;;;;;3.13;0.80;;;;;;;;;;5282031;28;20470;-68
2022/08/16 14:31:27;;;;;;;3.80;0.70;;;;;;;;;;5281052;28;20467;-68
2022/08/16 14:33:59;;;;;;;5.47;0.88;;;;;;;;;;5281349;28;20455;-67
2022/08/16 14:36:30;;;;;;;5.97;0.70;;;;;;;;;;5281268;28;20055;-68
2022/08/16 14:39:02;;;;;;;2.45;0.60;;;;;;;;;;5281771;28;20267;-67
2022/08/16 14:41:33;;;;;;;3.33;0.60;;;;;;;;;;5280145;28;20063;-68
2022/08/16 14:44:05;;;;;;;3.55;0.80;;;;;;;;;;5281797;28;20017;-67
2022/08/16 14:46:36;;;;;;;4.43;0.80;;;;;;;;;;5280596;28;20082;-67
2022/08/16 14:49:08;;;;;;;4.10;0.70;;;;;;;;;;5281121;28;20024;-67
2022/08/16 14:51:39;;;;;;;1.80;0.82;;;;;;;;;;5281031;28;20114;-68
2022/08/16 14:54:10;;;;;;;4.10;1.10;;;;;;;;;;5280688;28;20024;-67
2022/08/16 14:56:42;;;;;;;2.92;0.80;;;;;;;;;;5280791;28;20096;-67
2022/08/16 14:59:13;;;;;;;4.33;0.93;;;;;;;;;;5281291;28;20023;-67
2022/08/16 15:01:44;;;;;;;7.07;0.85;;;;;;;;;;5279934;28;20936;-68